sensor_id;sensor_type;location;lat;lon;timestamp;P1;durP1;ratioP1;P2;durP2;ratioP2
71513;SDS011;59335;46.652;21.272;2023-11-19T00:02:38;3.10;;;1.60;;
71513;SDS011;59335;46.652;21.272;2023-11-19T00:05:42;4.20;;;1.90;;
71513;SDS011;59335;46.652;21.272;2023-11-19T00:08:45;3.30;;;1.60;;
71513;SDS011;59335;46.652;21.272;2023-11-19T00:11:48;2.95;;;1.60;;
71513;SDS011;59335;46.652;21.272;2023-11-19T00:14:53;3.45;;;1.80;;
71513;SDS011;59335;46.652;21.272;2023-11-19T00:17:56;3.77;;;1.67;;
71513;SDS011;59335;46.652;21.272;2023-11-19T00:21:03;3.13;;;1.70;;
71513;SDS011;59335;46.652;21.272;2023-11-19T00:24:06;3.78;;;1.80;;
71513;SDS011;59335;46.652;21.272;2023-11-19T00:27:09;3.63;;;1.52;;
71513;SDS011;59335;46.652;21.272;2023-11-19T00:30:12;3.53;;;1.80;;
71513;SDS011;59335;46.652;21.272;2023-11-19T00:33:16;3.77;;;1.70;;
71513;SDS011;59335;46.652;21.272;2023-11-19T00:36:20;3.47;;;1.80;;
71513;SDS011;59335;46.652;21.272;2023-11-19T00:39:23;3.58;;;1.85;;
71513;SDS011;59335;46.652;21.272;2023-11-19T00:42:26;3.10;;;1.60;;
71513;SDS011;59335;46.652;21.272;2023-11-19T00:45:28;3.78;;;1.83;;
71513;SDS011;59335;46.652;21.272;2023-11-19T00:48:32;3.53;;;1.80;;
71513;SDS011;59335;46.652;21.272;2023-11-19T00:51:34;3.38;;;1.50;;
71513;SDS011;59335;46.652;21.272;2023-11-19T00:54:37;3.75;;;1.63;;
71513;SDS011;59335;46.652;21.272;2023-11-19T00:57:40;3.67;;;1.73;;
71513;SDS011;59335;46.652;21.272;2023-11-19T01:00:43;3.70;;;1.80;;
71513;SDS011;59335;46.652;21.272;2023-11-19T01:03:47;3.57;;;1.90;;
71513;SDS011;59335;46.652;21.272;2023-11-19T01:06:50;2.97;;;1.60;;
71513;SDS011;59335;46.652;21.272;2023-11-19T01:09:53;3.63;;;1.70;;
71513;SDS011;59335;46.652;21.272;2023-11-19T01:12:56;3.88;;;1.77;;
71513;SDS011;59335;46.652;21.272;2023-11-19T01:15:59;4.05;;;1.80;;
71513;SDS011;59335;46.652;21.272;2023-11-19T01:19:04;3.33;;;1.70;;
71513;SDS011;59335;46.652;21.272;2023-11-19T01:22:19;3.42;;;1.70;;
71513;SDS011;59335;46.652;21.272;2023-11-19T01:25:22;3.20;;;1.80;;
71513;SDS011;59335;46.652;21.272;2023-11-19T01:28:25;3.28;;;1.70;;
71513;SDS011;59335;46.652;21.272;2023-11-19T01:31:28;3.38;;;1.90;;
71513;SDS011;59335;46.652;21.272;2023-11-19T01:34:32;3.87;;;1.70;;
71513;SDS011;59335;46.652;21.272;2023-11-19T01:37:35;3.72;;;1.63;;
71513;SDS011;59335;46.652;21.272;2023-11-19T01:40:39;3.08;;;1.70;;
71513;SDS011;59335;46.652;21.272;2023-11-19T01:43:42;3.63;;;2.00;;
71513;SDS011;59335;46.652;21.272;2023-11-19T01:46:45;3.70;;;1.98;;
71513;SDS011;59335;46.652;21.272;2023-11-19T01:49:52;3.47;;;1.93;;
71513;SDS011;59335;46.652;21.272;2023-11-19T01:52:55;3.92;;;1.85;;
71513;SDS011;59335;46.652;21.272;2023-11-19T01:56:03;4.40;;;1.75;;
71513;SDS011;59335;46.652;21.272;2023-11-19T01:59:07;3.80;;;1.80;;
71513;SDS011;59335;46.652;21.272;2023-11-19T02:02:15;3.83;;;1.92;;
71513;SDS011;59335;46.652;21.272;2023-11-19T02:05:18;3.90;;;1.70;;
71513;SDS011;59335;46.652;21.272;2023-11-19T02:08:21;3.47;;;1.67;;
71513;SDS011;59335;46.652;21.272;2023-11-19T02:11:24;3.72;;;1.88;;
71513;SDS011;59335;46.652;21.272;2023-11-19T02:14:31;3.42;;;1.75;;
71513;SDS011;59335;46.652;21.272;2023-11-19T02:17:35;4.03;;;1.98;;
71513;SDS011;59335;46.652;21.272;2023-11-19T02:20:40;3.80;;;1.67;;
71513;SDS011;59335;46.652;21.272;2023-11-19T02:23:42;4.40;;;1.80;;
71513;SDS011;59335;46.652;21.272;2023-11-19T02:27:08;3.38;;;1.80;;
71513;SDS011;59335;46.652;21.272;2023-11-19T02:30:13;3.35;;;1.70;;
71513;SDS011;59335;46.652;21.272;2023-11-19T02:33:17;3.30;;;1.70;;
71513;SDS011;59335;46.652;21.272;2023-11-19T02:36:20;3.40;;;1.83;;
71513;SDS011;59335;46.652;21.272;2023-11-19T02:39:24;3.50;;;1.58;;
71513;SDS011;59335;46.652;21.272;2023-11-19T02:42:27;3.88;;;1.90;;
71513;SDS011;59335;46.652;21.272;2023-11-19T02:45:30;3.92;;;1.90;;
71513;SDS011;59335;46.652;21.272;2023-11-19T02:48:34;3.78;;;1.90;;
71513;SDS011;59335;46.652;21.272;2023-11-19T02:51:41;3.30;;;1.60;;
71513;SDS011;59335;46.652;21.272;2023-11-19T02:54:44;3.53;;;1.70;;
71513;SDS011;59335;46.652;21.272;2023-11-19T02:57:47;3.10;;;1.60;;
71513;SDS011;59335;46.652;21.272;2023-11-19T03:00:54;3.90;;;1.98;;
71513;SDS011;59335;46.652;21.272;2023-11-19T03:04:02;4.00;;;1.90;;
71513;SDS011;59335;46.652;21.272;2023-11-19T03:07:06;3.27;;;1.70;;
71513;SDS011;59335;46.652;21.272;2023-11-19T03:10:10;3.58;;;1.60;;
71513;SDS011;59335;46.652;21.272;2023-11-19T03:13:16;3.85;;;1.90;;
71513;SDS011;59335;46.652;21.272;2023-11-19T03:16:22;3.88;;;1.73;;
71513;SDS011;59335;46.652;21.272;2023-11-19T03:19:25;3.35;;;1.80;;
71513;SDS011;59335;46.652;21.272;2023-11-19T03:22:29;4.40;;;1.90;;
71513;SDS011;59335;46.652;21.272;2023-11-19T03:25:32;4.18;;;2.17;;
71513;SDS011;59335;46.652;21.272;2023-11-19T03:28:39;3.28;;;1.70;;
71513;SDS011;59335;46.652;21.272;2023-11-19T03:31:42;3.00;;;1.40;;
71513;SDS011;59335;46.652;21.272;2023-11-19T03:34:45;3.30;;;1.73;;
71513;SDS011;59335;46.652;21.272;2023-11-19T03:37:48;4.43;;;1.90;;
71513;SDS011;59335;46.652;21.272;2023-11-19T03:40:50;3.47;;;1.60;;
71513;SDS011;59335;46.652;21.272;2023-11-19T03:43:53;3.53;;;1.80;;
71513;SDS011;59335;46.652;21.272;2023-11-19T03:46:56;3.70;;;1.90;;
71513;SDS011;59335;46.652;21.272;2023-11-19T03:49:59;3.95;;;2.15;;
71513;SDS011;59335;46.652;21.272;2023-11-19T03:53:02;3.53;;;1.80;;
71513;SDS011;59335;46.652;21.272;2023-11-19T03:56:07;3.78;;;2.00;;
71513;SDS011;59335;46.652;21.272;2023-11-19T03:59:12;3.95;;;1.90;;
71513;SDS011;59335;46.652;21.272;2023-11-19T04:02:15;3.67;;;2.10;;
71513;SDS011;59335;46.652;21.272;2023-11-19T04:05:18;3.88;;;2.00;;
71513;SDS011;59335;46.652;21.272;2023-11-19T04:08:22;3.27;;;1.80;;
71513;SDS011;59335;46.652;21.272;2023-11-19T04:11:25;3.40;;;1.70;;
71513;SDS011;59335;46.652;21.272;2023-11-19T04:14:28;3.75;;;2.30;;
71513;SDS011;59335;46.652;21.272;2023-11-19T04:17:31;3.80;;;1.90;;
71513;SDS011;59335;46.652;21.272;2023-11-19T04:20:33;3.80;;;2.00;;
71513;SDS011;59335;46.652;21.272;2023-11-19T04:23:36;5.00;;;1.90;;
71513;SDS011;59335;46.652;21.272;2023-11-19T04:26:45;3.50;;;1.70;;
71513;SDS011;59335;46.652;21.272;2023-11-19T04:29:49;3.20;;;1.63;;
71513;SDS011;59335;46.652;21.272;2023-11-19T04:32:53;3.90;;;1.90;;
71513;SDS011;59335;46.652;21.272;2023-11-19T04:35:56;3.70;;;1.92;;
71513;SDS011;59335;46.652;21.272;2023-11-19T04:38:59;3.57;;;1.73;;
71513;SDS011;59335;46.652;21.272;2023-11-19T04:42:03;3.60;;;1.80;;
71513;SDS011;59335;46.652;21.272;2023-11-19T04:45:07;3.90;;;2.10;;
71513;SDS011;59335;46.652;21.272;2023-11-19T04:48:12;3.70;;;1.60;;
71513;SDS011;59335;46.652;21.272;2023-11-19T04:51:15;3.60;;;1.80;;
71513;SDS011;59335;46.652;21.272;2023-11-19T04:54:18;2.90;;;1.60;;
71513;SDS011;59335;46.652;21.272;2023-11-19T04:57:21;3.67;;;1.80;;
71513;SDS011;59335;46.652;21.272;2023-11-19T05:00:24;4.18;;;1.80;;
71513;SDS011;59335;46.652;21.272;2023-11-19T05:03:28;3.80;;;1.90;;
71513;SDS011;59335;46.652;21.272;2023-11-19T05:06:31;3.30;;;1.73;;
71513;SDS011;59335;46.652;21.272;2023-11-19T05:09:34;4.43;;;1.77;;
71513;SDS011;59335;46.652;21.272;2023-11-19T05:12:37;3.35;;;1.80;;
71513;SDS011;59335;46.652;21.272;2023-11-19T05:15:41;3.92;;;2.17;;
71513;SDS011;59335;46.652;21.272;2023-11-19T05:18:44;2.97;;;1.70;;
71513;SDS011;59335;46.652;21.272;2023-11-19T05:21:47;3.97;;;1.92;;
71513;SDS011;59335;46.652;21.272;2023-11-19T05:24:51;3.17;;;1.90;;
71513;SDS011;59335;46.652;21.272;2023-11-19T05:27:54;3.90;;;1.90;;
71513;SDS011;59335;46.652;21.272;2023-11-19T05:30:57;3.28;;;1.85;;
71513;SDS011;59335;46.652;21.272;2023-11-19T05:34:00;3.80;;;1.80;;
71513;SDS011;59335;46.652;21.272;2023-11-19T05:37:03;4.20;;;1.90;;
71513;SDS011;59335;46.652;21.272;2023-11-19T05:40:08;3.50;;;1.83;;
71513;SDS011;59335;46.652;21.272;2023-11-19T05:43:17;3.72;;;1.92;;
71513;SDS011;59335;46.652;21.272;2023-11-19T05:46:20;3.67;;;2.20;;
71513;SDS011;59335;46.652;21.272;2023-11-19T05:49:24;3.30;;;1.92;;
71513;SDS011;59335;46.652;21.272;2023-11-19T05:52:26;3.25;;;1.95;;
71513;SDS011;59335;46.652;21.272;2023-11-19T05:55:30;3.03;;;1.70;;
71513;SDS011;59335;46.652;21.272;2023-11-19T05:58:33;3.22;;;1.80;;
71513;SDS011;59335;46.652;21.272;2023-11-19T06:01:36;3.35;;;1.70;;
71513;SDS011;59335;46.652;21.272;2023-11-19T06:04:40;4.22;;;2.15;;
71513;SDS011;59335;46.652;21.272;2023-11-19T06:07:46;4.18;;;1.83;;
71513;SDS011;59335;46.652;21.272;2023-11-19T06:10:50;3.50;;;1.77;;
71513;SDS011;59335;46.652;21.272;2023-11-19T06:13:53;4.85;;;3.30;;
71513;SDS011;59335;46.652;21.272;2023-11-19T06:16:56;3.75;;;1.90;;
71513;SDS011;59335;46.652;21.272;2023-11-19T06:19:59;3.50;;;1.70;;
71513;SDS011;59335;46.652;21.272;2023-11-19T06:23:02;4.00;;;1.90;;
71513;SDS011;59335;46.652;21.272;2023-11-19T06:26:05;3.50;;;1.80;;
71513;SDS011;59335;46.652;21.272;2023-11-19T06:29:08;3.75;;;1.88;;
71513;SDS011;59335;46.652;21.272;2023-11-19T06:32:11;3.85;;;2.05;;
71513;SDS011;59335;46.652;21.272;2023-11-19T06:35:16;3.95;;;2.03;;
71513;SDS011;59335;46.652;21.272;2023-11-19T06:38:19;3.58;;;1.95;;
71513;SDS011;59335;46.652;21.272;2023-11-19T06:41:22;4.37;;;2.03;;
71513;SDS011;59335;46.652;21.272;2023-11-19T06:44:25;3.67;;;1.88;;
71513;SDS011;59335;46.652;21.272;2023-11-19T06:47:28;3.70;;;1.85;;
71513;SDS011;59335;46.652;21.272;2023-11-19T06:50:31;4.28;;;1.85;;
71513;SDS011;59335;46.652;21.272;2023-11-19T06:53:34;3.60;;;1.88;;
71513;SDS011;59335;46.652;21.272;2023-11-19T06:56:37;3.67;;;1.80;;
71513;SDS011;59335;46.652;21.272;2023-11-19T06:59:40;3.90;;;1.92;;
71513;SDS011;59335;46.652;21.272;2023-11-19T07:02:44;3.63;;;2.00;;
71513;SDS011;59335;46.652;21.272;2023-11-19T07:05:47;3.75;;;2.13;;
71513;SDS011;59335;46.652;21.272;2023-11-19T07:08:51;3.40;;;1.80;;
71513;SDS011;59335;46.652;21.272;2023-11-19T07:11:54;3.83;;;1.70;;
71513;SDS011;59335;46.652;21.272;2023-11-19T07:14:57;3.33;;;1.90;;
71513;SDS011;59335;46.652;21.272;2023-11-19T07:18:00;3.17;;;1.83;;
71513;SDS011;59335;46.652;21.272;2023-11-19T07:21:04;3.17;;;1.77;;
71513;SDS011;59335;46.652;21.272;2023-11-19T07:24:08;3.67;;;1.95;;
71513;SDS011;59335;46.652;21.272;2023-11-19T07:27:11;4.17;;;2.00;;
71513;SDS011;59335;46.652;21.272;2023-11-19T07:30:14;3.70;;;1.85;;
71513;SDS011;59335;46.652;21.272;2023-11-19T07:33:17;4.30;;;2.00;;
71513;SDS011;59335;46.652;21.272;2023-11-19T07:36:20;3.58;;;1.90;;
71513;SDS011;59335;46.652;21.272;2023-11-19T07:39:22;3.85;;;2.08;;
71513;SDS011;59335;46.652;21.272;2023-11-19T07:42:26;3.47;;;1.80;;
71513;SDS011;59335;46.652;21.272;2023-11-19T07:45:28;3.67;;;1.90;;
71513;SDS011;59335;46.652;21.272;2023-11-19T07:48:31;3.80;;;2.22;;
71513;SDS011;59335;46.652;21.272;2023-11-19T07:51:34;3.83;;;2.00;;
71513;SDS011;59335;46.652;21.272;2023-11-19T07:54:37;4.10;;;2.17;;
71513;SDS011;59335;46.652;21.272;2023-11-19T07:57:39;3.30;;;1.80;;
71513;SDS011;59335;46.652;21.272;2023-11-19T08:00:43;4.85;;;2.13;;
71513;SDS011;59335;46.652;21.272;2023-11-19T08:03:45;3.88;;;1.98;;
71513;SDS011;59335;46.652;21.272;2023-11-19T08:06:51;3.78;;;2.10;;
71513;SDS011;59335;46.652;21.272;2023-11-19T08:09:56;4.45;;;2.30;;
71513;SDS011;59335;46.652;21.272;2023-11-19T08:12:59;4.03;;;2.00;;
71513;SDS011;59335;46.652;21.272;2023-11-19T08:16:01;4.28;;;2.10;;
71513;SDS011;59335;46.652;21.272;2023-11-19T08:19:05;4.40;;;2.10;;
71513;SDS011;59335;46.652;21.272;2023-11-19T08:22:07;3.70;;;2.10;;
71513;SDS011;59335;46.652;21.272;2023-11-19T08:25:11;4.13;;;2.20;;
71513;SDS011;59335;46.652;21.272;2023-11-19T08:28:14;4.63;;;2.47;;
71513;SDS011;59335;46.652;21.272;2023-11-19T08:31:17;4.20;;;2.20;;
71513;SDS011;59335;46.652;21.272;2023-11-19T08:34:20;4.18;;;2.42;;
71513;SDS011;59335;46.652;21.272;2023-11-19T08:37:23;4.05;;;2.17;;
71513;SDS011;59335;46.652;21.272;2023-11-19T08:40:28;4.45;;;2.30;;
71513;SDS011;59335;46.652;21.272;2023-11-19T08:43:34;4.50;;;2.30;;
71513;SDS011;59335;46.652;21.272;2023-11-19T08:46:37;5.05;;;2.20;;
71513;SDS011;59335;46.652;21.272;2023-11-19T08:49:40;3.88;;;2.00;;
71513;SDS011;59335;46.652;21.272;2023-11-19T08:52:43;5.38;;;2.22;;
71513;SDS011;59335;46.652;21.272;2023-11-19T08:55:45;3.83;;;2.08;;
71513;SDS011;59335;46.652;21.272;2023-11-19T08:58:49;5.03;;;2.30;;
71513;SDS011;59335;46.652;21.272;2023-11-19T09:01:52;4.65;;;2.17;;
71513;SDS011;59335;46.652;21.272;2023-11-19T09:04:55;4.38;;;2.13;;
71513;SDS011;59335;46.652;21.272;2023-11-19T09:07:58;4.03;;;2.00;;
71513;SDS011;59335;46.652;21.272;2023-11-19T09:11:01;4.88;;;2.40;;
71513;SDS011;59335;46.652;21.272;2023-11-19T09:14:10;4.23;;;2.30;;
71513;SDS011;59335;46.652;21.272;2023-11-19T09:17:13;3.95;;;2.15;;
71513;SDS011;59335;46.652;21.272;2023-11-19T09:20:16;4.85;;;2.10;;
71513;SDS011;59335;46.652;21.272;2023-11-19T09:23:19;4.28;;;2.22;;
71513;SDS011;59335;46.652;21.272;2023-11-19T09:26:22;4.15;;;2.13;;
71513;SDS011;59335;46.652;21.272;2023-11-19T09:29:25;4.63;;;2.13;;
71513;SDS011;59335;46.652;21.272;2023-11-19T09:32:27;4.70;;;2.30;;
71513;SDS011;59335;46.652;21.272;2023-11-19T09:35:31;4.50;;;2.28;;
71513;SDS011;59335;46.652;21.272;2023-11-19T09:38:34;4.57;;;2.20;;
71513;SDS011;59335;46.652;21.272;2023-11-19T09:41:40;4.60;;;2.40;;
71513;SDS011;59335;46.652;21.272;2023-11-19T09:44:44;4.40;;;2.00;;
71513;SDS011;59335;46.652;21.272;2023-11-19T09:47:48;3.92;;;2.25;;
71513;SDS011;59335;46.652;21.272;2023-11-19T09:50:55;3.97;;;2.30;;
71513;SDS011;59335;46.652;21.272;2023-11-19T09:53:58;4.30;;;2.20;;
71513;SDS011;59335;46.652;21.272;2023-11-19T09:57:00;4.70;;;2.67;;
71513;SDS011;59335;46.652;21.272;2023-11-19T10:00:09;3.90;;;2.10;;
71513;SDS011;59335;46.652;21.272;2023-11-19T10:03:13;5.40;;;2.75;;
71513;SDS011;59335;46.652;21.272;2023-11-19T10:06:16;3.70;;;1.95;;
71513;SDS011;59335;46.652;21.272;2023-11-19T10:09:21;4.50;;;2.30;;
71513;SDS011;59335;46.652;21.272;2023-11-19T10:12:24;4.32;;;2.30;;
71513;SDS011;59335;46.652;21.272;2023-11-19T10:15:27;4.20;;;2.10;;
71513;SDS011;59335;46.652;21.272;2023-11-19T10:18:32;4.07;;;1.92;;
71513;SDS011;59335;46.652;21.272;2023-11-19T10:21:42;4.00;;;2.00;;
71513;SDS011;59335;46.652;21.272;2023-11-19T10:24:45;4.25;;;2.20;;
71513;SDS011;59335;46.652;21.272;2023-11-19T10:27:55;3.85;;;2.00;;
71513;SDS011;59335;46.652;21.272;2023-11-19T10:30:59;3.50;;;2.00;;
71513;SDS011;59335;46.652;21.272;2023-11-19T10:34:01;3.85;;;2.10;;
71513;SDS011;59335;46.652;21.272;2023-11-19T10:37:06;3.67;;;2.00;;
71513;SDS011;59335;46.652;21.272;2023-11-19T10:40:09;3.47;;;2.13;;
71513;SDS011;59335;46.652;21.272;2023-11-19T10:43:13;4.72;;;2.25;;
71513;SDS011;59335;46.652;21.272;2023-11-19T10:46:16;5.57;;;2.37;;
71513;SDS011;59335;46.652;21.272;2023-11-19T10:49:23;4.93;;;2.15;;
71513;SDS011;59335;46.652;21.272;2023-11-19T10:52:26;3.95;;;2.25;;
71513;SDS011;59335;46.652;21.272;2023-11-19T10:55:31;4.35;;;2.03;;
71513;SDS011;59335;46.652;21.272;2023-11-19T10:58:35;4.65;;;2.40;;
71513;SDS011;59335;46.652;21.272;2023-11-19T11:01:43;4.40;;;2.20;;
71513;SDS011;59335;46.652;21.272;2023-11-19T11:04:47;5.32;;;2.35;;
71513;SDS011;59335;46.652;21.272;2023-11-19T11:07:55;4.50;;;2.38;;
71513;SDS011;59335;46.652;21.272;2023-11-19T11:10:58;3.38;;;2.05;;
71513;SDS011;59335;46.652;21.272;2023-11-19T11:14:02;4.07;;;2.25;;
71513;SDS011;59335;46.652;21.272;2023-11-19T11:17:07;4.20;;;2.40;;
71513;SDS011;59335;46.652;21.272;2023-11-19T11:20:13;4.25;;;2.30;;
71513;SDS011;59335;46.652;21.272;2023-11-19T11:30:20;4.30;;;2.65;;
71513;SDS011;59335;46.652;21.272;2023-11-19T11:33:36;3.63;;;2.00;;
71513;SDS011;59335;46.652;21.272;2023-11-19T11:37:07;4.70;;;2.50;;
71513;SDS011;59335;46.652;21.272;2023-11-19T11:40:16;4.30;;;2.22;;
71513;SDS011;59335;46.652;21.272;2023-11-19T11:43:43;3.67;;;2.15;;
71513;SDS011;59335;46.652;21.272;2023-11-19T11:46:53;4.65;;;2.25;;
71513;SDS011;59335;46.652;21.272;2023-11-19T11:49:56;4.27;;;2.30;;
71513;SDS011;59335;46.652;21.272;2023-11-19T11:53:15;4.03;;;2.00;;
71513;SDS011;59335;46.652;21.272;2023-11-19T11:56:19;4.00;;;1.98;;
71513;SDS011;59335;46.652;21.272;2023-11-19T11:59:23;4.32;;;2.30;;
71513;SDS011;59335;46.652;21.272;2023-11-19T12:02:26;4.80;;;2.42;;
71513;SDS011;59335;46.652;21.272;2023-11-19T12:05:29;4.27;;;2.27;;
71513;SDS011;59335;46.652;21.272;2023-11-19T12:08:33;4.03;;;2.05;;
71513;SDS011;59335;46.652;21.272;2023-11-19T12:15:16;4.70;;;2.20;;
71513;SDS011;59335;46.652;21.272;2023-11-19T12:18:26;4.07;;;2.28;;
71513;SDS011;59335;46.652;21.272;2023-11-19T12:21:30;5.03;;;2.50;;
71513;SDS011;59335;46.652;21.272;2023-11-19T12:24:33;4.50;;;2.40;;
71513;SDS011;59335;46.652;21.272;2023-11-19T12:27:40;4.25;;;2.13;;
71513;SDS011;59335;46.652;21.272;2023-11-19T12:30:45;4.07;;;2.28;;
71513;SDS011;59335;46.652;21.272;2023-11-19T12:33:50;4.32;;;2.10;;
71513;SDS011;59335;46.652;21.272;2023-11-19T12:36:53;4.43;;;2.23;;
71513;SDS011;59335;46.652;21.272;2023-11-19T12:39:57;4.78;;;2.40;;
71513;SDS011;59335;46.652;21.272;2023-11-19T12:43:01;6.03;;;2.38;;
71513;SDS011;59335;46.652;21.272;2023-11-19T12:46:17;4.68;;;2.40;;
71513;SDS011;59335;46.652;21.272;2023-11-19T12:49:20;3.88;;;2.15;;
71513;SDS011;59335;46.652;21.272;2023-11-19T12:52:23;4.60;;;2.20;;
71513;SDS011;59335;46.652;21.272;2023-11-19T12:55:27;4.32;;;2.20;;
71513;SDS011;59335;46.652;21.272;2023-11-19T12:58:33;3.83;;;2.10;;
71513;SDS011;59335;46.652;21.272;2023-11-19T13:01:38;4.75;;;2.50;;
71513;SDS011;59335;46.652;21.272;2023-11-19T13:04:42;4.55;;;2.30;;
71513;SDS011;59335;46.652;21.272;2023-11-19T13:07:45;4.40;;;2.20;;
71513;SDS011;59335;46.652;21.272;2023-11-19T13:14:01;3.80;;;2.20;;
71513;SDS011;59335;46.652;21.272;2023-11-19T13:17:15;4.57;;;2.47;;
71513;SDS011;59335;46.652;21.272;2023-11-19T13:20:17;4.43;;;2.33;;
71513;SDS011;59335;46.652;21.272;2023-11-19T13:23:21;4.10;;;2.10;;
71513;SDS011;59335;46.652;21.272;2023-11-19T13:26:24;4.15;;;2.22;;
71513;SDS011;59335;46.652;21.272;2023-11-19T13:29:27;4.38;;;2.20;;
71513;SDS011;59335;46.652;21.272;2023-11-19T13:32:33;3.92;;;2.28;;
71513;SDS011;59335;46.652;21.272;2023-11-19T13:35:36;5.57;;;2.35;;
71513;SDS011;59335;46.652;21.272;2023-11-19T13:38:40;3.90;;;2.10;;
71513;SDS011;59335;46.652;21.272;2023-11-19T13:41:44;4.20;;;2.17;;
71513;SDS011;59335;46.652;21.272;2023-11-19T13:44:47;3.72;;;1.95;;
71513;SDS011;59335;46.652;21.272;2023-11-19T13:47:50;4.22;;;2.10;;
71513;SDS011;59335;46.652;21.272;2023-11-19T13:50:53;4.18;;;2.20;;
71513;SDS011;59335;46.652;21.272;2023-11-19T13:53:56;4.33;;;2.23;;
71513;SDS011;59335;46.652;21.272;2023-11-19T13:57:00;4.80;;;2.50;;
71513;SDS011;59335;46.652;21.272;2023-11-19T14:00:03;4.68;;;2.38;;
71513;SDS011;59335;46.652;21.272;2023-11-19T14:03:18;4.25;;;2.40;;
71513;SDS011;59335;46.652;21.272;2023-11-19T14:06:22;4.78;;;2.38;;
71513;SDS011;59335;46.652;21.272;2023-11-19T14:09:25;4.70;;;2.30;;
71513;SDS011;59335;46.652;21.272;2023-11-19T14:12:29;4.13;;;2.28;;
71513;SDS011;59335;46.652;21.272;2023-11-19T14:15:32;4.78;;;2.30;;
71513;SDS011;59335;46.652;21.272;2023-11-19T14:18:34;4.47;;;2.35;;
71513;SDS011;59335;46.652;21.272;2023-11-19T14:21:37;4.05;;;2.03;;
71513;SDS011;59335;46.652;21.272;2023-11-19T14:24:40;4.60;;;2.10;;
71513;SDS011;59335;46.652;21.272;2023-11-19T14:27:45;4.53;;;2.30;;
71513;SDS011;59335;46.652;21.272;2023-11-19T14:30:50;3.55;;;2.00;;
71513;SDS011;59335;46.652;21.272;2023-11-19T14:33:59;4.38;;;2.28;;
71513;SDS011;59335;46.652;21.272;2023-11-19T14:37:02;3.92;;;2.20;;
71513;SDS011;59335;46.652;21.272;2023-11-19T14:40:06;4.53;;;2.43;;
71513;SDS011;59335;46.652;21.272;2023-11-19T14:43:12;4.25;;;2.20;;
71513;SDS011;59335;46.652;21.272;2023-11-19T14:46:16;4.45;;;2.30;;
71513;SDS011;59335;46.652;21.272;2023-11-19T14:49:19;4.75;;;2.22;;
71513;SDS011;59335;46.652;21.272;2023-11-19T14:52:22;4.85;;;2.40;;
71513;SDS011;59335;46.652;21.272;2023-11-19T14:55:25;3.73;;;2.10;;
71513;SDS011;59335;46.652;21.272;2023-11-19T14:58:29;4.13;;;2.22;;
71513;SDS011;59335;46.652;21.272;2023-11-19T15:01:32;3.70;;;2.08;;
71513;SDS011;59335;46.652;21.272;2023-11-19T15:04:35;3.63;;;2.13;;
71513;SDS011;59335;46.652;21.272;2023-11-19T15:07:38;4.20;;;2.40;;
71513;SDS011;59335;46.652;21.272;2023-11-19T15:10:44;4.30;;;2.30;;
71513;SDS011;59335;46.652;21.272;2023-11-19T15:13:49;4.20;;;2.20;;
71513;SDS011;59335;46.652;21.272;2023-11-19T15:16:52;4.43;;;2.25;;
71513;SDS011;59335;46.652;21.272;2023-11-19T15:19:55;5.57;;;2.58;;
71513;SDS011;59335;46.652;21.272;2023-11-19T15:22:58;3.95;;;2.30;;
71513;SDS011;59335;46.652;21.272;2023-11-19T15:26:02;4.23;;;1.93;;
71513;SDS011;59335;46.652;21.272;2023-11-19T15:29:05;3.97;;;2.10;;
71513;SDS011;59335;46.652;21.272;2023-11-19T15:32:08;4.20;;;2.40;;
71513;SDS011;59335;46.652;21.272;2023-11-19T15:35:11;4.93;;;2.30;;
71513;SDS011;59335;46.652;21.272;2023-11-19T15:38:16;3.80;;;2.22;;
71513;SDS011;59335;46.652;21.272;2023-11-19T15:41:19;4.10;;;2.27;;
71513;SDS011;59335;46.652;21.272;2023-11-19T15:44:22;4.60;;;2.00;;
71513;SDS011;59335;46.652;21.272;2023-11-19T15:47:27;5.13;;;2.50;;
71513;SDS011;59335;46.652;21.272;2023-11-19T15:50:30;4.25;;;2.28;;
71513;SDS011;59335;46.652;21.272;2023-11-19T15:53:33;4.63;;;2.40;;
71513;SDS011;59335;46.652;21.272;2023-11-19T15:56:36;4.30;;;2.30;;
71513;SDS011;59335;46.652;21.272;2023-11-19T15:59:39;4.80;;;2.30;;
71513;SDS011;59335;46.652;21.272;2023-11-19T16:02:43;4.50;;;2.35;;
71513;SDS011;59335;46.652;21.272;2023-11-19T16:05:46;4.35;;;2.47;;
71513;SDS011;59335;46.652;21.272;2023-11-19T16:09:05;5.00;;;2.47;;
71513;SDS011;59335;46.652;21.272;2023-11-19T16:12:08;4.30;;;2.20;;
71513;SDS011;59335;46.652;21.272;2023-11-19T16:15:11;4.25;;;2.20;;
71513;SDS011;59335;46.652;21.272;2023-11-19T16:18:16;4.43;;;2.45;;
71513;SDS011;59335;46.652;21.272;2023-11-19T16:21:20;5.30;;;2.60;;
71513;SDS011;59335;46.652;21.272;2023-11-19T16:24:23;4.60;;;2.30;;
71513;SDS011;59335;46.652;21.272;2023-11-19T16:27:28;4.80;;;2.43;;
71513;SDS011;59335;46.652;21.272;2023-11-19T16:30:30;4.90;;;2.42;;
71513;SDS011;59335;46.652;21.272;2023-11-19T16:33:33;5.38;;;2.95;;
71513;SDS011;59335;46.652;21.272;2023-11-19T16:36:37;4.50;;;2.30;;
71513;SDS011;59335;46.652;21.272;2023-11-19T16:39:41;4.50;;;2.40;;
71513;SDS011;59335;46.652;21.272;2023-11-19T16:42:45;4.90;;;2.70;;
71513;SDS011;59335;46.652;21.272;2023-11-19T16:45:52;4.53;;;2.33;;
71513;SDS011;59335;46.652;21.272;2023-11-19T16:48:55;4.70;;;2.33;;
71513;SDS011;59335;46.652;21.272;2023-11-19T16:51:58;4.55;;;2.30;;
71513;SDS011;59335;46.652;21.272;2023-11-19T16:55:03;4.55;;;2.50;;
71513;SDS011;59335;46.652;21.272;2023-11-19T16:58:14;4.73;;;2.23;;
71513;SDS011;59335;46.652;21.272;2023-11-19T17:01:18;5.00;;;2.20;;
71513;SDS011;59335;46.652;21.272;2023-11-19T17:04:22;4.90;;;2.78;;
71513;SDS011;59335;46.652;21.272;2023-11-19T17:07:26;4.82;;;2.42;;
71513;SDS011;59335;46.652;21.272;2023-11-19T17:10:30;4.90;;;2.55;;
71513;SDS011;59335;46.652;21.272;2023-11-19T17:13:33;5.57;;;2.80;;
71513;SDS011;59335;46.652;21.272;2023-11-19T17:16:38;4.38;;;2.33;;
71513;SDS011;59335;46.652;21.272;2023-11-19T17:19:42;4.45;;;2.08;;
71513;SDS011;59335;46.652;21.272;2023-11-19T17:22:46;5.03;;;2.95;;
71513;SDS011;59335;46.652;21.272;2023-11-19T17:25:50;4.40;;;2.35;;
71513;SDS011;59335;46.652;21.272;2023-11-19T17:28:53;5.07;;;2.50;;
71513;SDS011;59335;46.652;21.272;2023-11-19T17:31:56;4.57;;;2.50;;
71513;SDS011;59335;46.652;21.272;2023-11-19T17:34:59;4.65;;;2.40;;
71513;SDS011;59335;46.652;21.272;2023-11-19T17:38:02;4.60;;;2.38;;
71513;SDS011;59335;46.652;21.272;2023-11-19T17:41:08;4.45;;;2.22;;
71513;SDS011;59335;46.652;21.272;2023-11-19T17:44:12;4.63;;;2.57;;
71513;SDS011;59335;46.652;21.272;2023-11-19T17:47:16;4.75;;;2.40;;
71513;SDS011;59335;46.652;21.272;2023-11-19T17:50:20;5.35;;;2.47;;
71513;SDS011;59335;46.652;21.272;2023-11-19T17:53:29;4.70;;;2.40;;
71513;SDS011;59335;46.652;21.272;2023-11-19T17:56:32;4.22;;;2.28;;
71513;SDS011;59335;46.652;21.272;2023-11-19T17:59:36;4.67;;;2.50;;
71513;SDS011;59335;46.652;21.272;2023-11-19T18:02:43;4.95;;;2.30;;
71513;SDS011;59335;46.652;21.272;2023-11-19T18:05:47;4.45;;;2.70;;
71513;SDS011;59335;46.652;21.272;2023-11-19T18:08:51;4.28;;;2.28;;
71513;SDS011;59335;46.652;21.272;2023-11-19T18:11:54;4.68;;;2.40;;
71513;SDS011;59335;46.652;21.272;2023-11-19T18:15:09;4.63;;;2.33;;
71513;SDS011;59335;46.652;21.272;2023-11-19T18:18:16;5.35;;;2.38;;
71513;SDS011;59335;46.652;21.272;2023-11-19T18:21:20;4.50;;;2.50;;
71513;SDS011;59335;46.652;21.272;2023-11-19T18:24:23;4.95;;;2.33;;
71513;SDS011;59335;46.652;21.272;2023-11-19T18:27:27;4.82;;;2.42;;